Time;durP1;ratioP1;P1;durP2;ratioP2;P2;SDS_P1;SDS_P2;PMS_P1;PMS_P2;Temp;Humidity;BMP_temperature;BMP_pressure;BME280_temperature;BME280_humidity;BME280_pressure;Samples;Min_cycle;Max_cycle;Signal;HPM_P1;HPM_P2
2023/10/02 00:02:09;;;;;;;15.57;7.80;;;16.80;99.90;;;;;;5093228;28;20047;-75
2023/10/02 00:04:55;;;;;;;17.95;8.45;;;16.90;99.90;;;;;;5061668;28;20043;-75
2023/10/02 00:07:44;;;;;;;18.13;8.30;;;16.90;99.90;;;;;;5086342;28;20573;-75
2023/10/02 00:10:31;;;;;;;15.60;8.15;;;16.90;99.90;;;;;;5099984;27;20142;-74
2023/10/02 00:13:18;;;;;;;16.20;8.02;;;16.90;99.90;;;;;;5076824;28;20081;-75
2023/10/02 00:16:08;;;;;;;17.38;7.63;;;16.90;99.90;;;;;;5098777;27;20498;-75
2023/10/02 00:18:54;;;;;;;16.67;7.68;;;16.90;99.90;;;;;;5077958;28;20039;-75
2023/10/02 00:21:42;;;;;;;13.80;7.00;;;16.90;99.90;;;;;;5068622;28;20086;-75
2023/10/02 00:24:28;;;;;;;16.25;7.05;;;16.90;99.90;;;;;;5091660;27;20051;-75
2023/10/02 00:27:13;;;;;;;16.42;7.82;;;17.00;99.90;;;;;;5094911;28;20134;-75
2023/10/02 00:30:01;;;;;;;17.55;8.60;;;16.90;99.90;;;;;;5096938;27;20726;-75
2023/10/02 00:32:47;;;;;;;16.33;7.80;;;17.00;99.90;;;;;;5079317;28;20360;-75
2023/10/02 00:35:50;;;;;;;14.95;7.65;;;17.00;99.90;;;;;;5096448;28;20118;-75
2023/10/02 00:38:36;;;;;;;19.40;7.93;;;17.00;99.90;;;;;;5081060;28;20033;-76
2023/10/02 00:41:22;;;;;;;14.38;8.13;;;17.00;99.90;;;;;;5080347;28;20035;-76
2023/10/02 00:44:08;;;;;;;17.58;8.30;;;17.00;99.90;;;;;;5090724;27;20156;-75
2023/10/02 00:46:54;;;;;;;16.38;7.57;;;17.00;99.90;;;;;;5094272;27;20122;-75
2023/10/02 00:49:41;;;;;;;14.65;7.55;;;17.00;99.90;;;;;;5086309;27;20260;-75
2023/10/02 00:52:27;;;;;;;15.20;8.13;;;17.00;99.90;;;;;;5079782;28;20106;-75
2023/10/02 00:55:20;;;;;;;18.15;7.65;;;17.00;99.90;;;;;;5068957;28;20040;-75
2023/10/02 00:58:08;;;;;;;15.65;7.70;;;17.10;99.90;;;;;;5071467;27;20043;-75
2023/10/02 01:00:55;;;;;;;;;;;17.10;99.90;;;;;;5086236;28;20063;-76
2023/10/02 01:04:08;;;;;;;15.98;7.60;;;17.10;99.90;;;;;;5101261;27;20423;-76
2023/10/02 01:07:05;;;;;;;14.93;7.30;;;17.10;99.90;;;;;;5101940;28;20051;-75
2023/10/02 01:10:07;;;;;;;16.95;8.65;;;17.10;99.90;;;;;;5078493;27;20039;-75
2023/10/02 01:13:01;;;;;;;15.65;8.10;;;17.10;99.90;;;;;;5084732;28;20046;-75
2023/10/02 01:15:48;;;;;;;16.25;7.88;;;17.10;99.90;;;;;;5066920;27;20361;-75
2023/10/02 01:18:38;;;;;;;16.73;8.48;;;17.10;99.90;;;;;;5081120;28;20050;-76
2023/10/02 01:21:24;;;;;;;16.38;7.32;;;17.10;99.90;;;;;;5084842;27;20074;-75
2023/10/02 01:24:16;;;;;;;14.80;7.63;;;17.10;99.90;;;;;;5080394;28;20048;-75
2023/10/02 01:27:03;;;;;;;18.35;7.68;;;17.10;99.90;;;;;;5079619;28;20052;-75
2023/10/02 01:30:14;;;;;;;17.85;8.57;;;17.10;99.90;;;;;;5081162;28;20453;-75
2023/10/02 01:36:04;;;;;;;15.63;8.13;;;17.10;99.90;;;;;;5088249;28;20436;-75
2023/10/02 01:38:54;;;;;;;17.10;7.83;;;17.10;99.90;;;;;;5067620;27;20325;-75
2023/10/02 01:41:48;;;;;;;15.25;8.02;;;17.10;99.90;;;;;;5094774;28;20043;-76
2023/10/02 01:44:54;;;;;;;16.23;8.48;;;17.10;99.90;;;;;;5068680;28;20040;-76
2023/10/02 01:47:41;;;;;;;17.33;8.07;;;17.10;99.90;;;;;;5097015;27;20244;-76
2023/10/02 01:50:30;;;;;;;20.23;9.13;;;17.10;99.90;;;;;;5094431;27;20126;-76
2023/10/02 01:53:37;;;;;;;15.75;8.25;;;17.10;99.90;;;;;;5058467;28;20137;-76
2023/10/02 01:56:27;;;;;;;16.63;8.40;;;17.10;99.90;;;;;;5099647;27;20051;-76
2023/10/02 01:59:19;;;;;;;16.10;7.70;;;17.10;99.90;;;;;;5072211;28;20051;-75
2023/10/02 02:02:12;;;;;;;22.92;12.43;;;17.10;99.90;;;;;;5084752;28;20039;-75
2023/10/02 02:04:58;;;;;;;19.25;11.00;;;17.10;99.90;;;;;;5060271;28;20031;-75
2023/10/02 02:07:44;;;;;;;21.55;11.40;;;17.10;99.90;;;;;;5079632;28;20038;-75
2023/10/02 02:10:30;;;;;;;17.45;9.13;;;17.10;99.90;;;;;;5111946;27;20043;-75
2023/10/02 02:13:16;;;;;;;17.08;8.15;;;17.10;99.90;;;;;;5060593;28;20480;-77
2023/10/02 02:16:09;;;;;;;15.63;7.85;;;17.00;99.90;;;;;;5097654;27;20043;-76
2023/10/02 02:18:55;;;;;;;17.20;8.25;;;17.00;99.90;;;;;;5079796;28;20071;-75
2023/10/02 02:21:40;;;;;;;14.30;7.32;;;17.00;99.90;;;;;;5078763;28;20050;-75
2023/10/02 02:24:34;;;;;;;16.23;8.05;;;17.00;99.90;;;;;;5075037;27;20048;-75
2023/10/02 02:27:20;;;;;;;16.45;8.20;;;17.00;99.90;;;;;;5111003;27;20356;-75
2023/10/02 02:30:10;;;;;;;16.15;8.15;;;17.00;99.90;;;;;;5084448;27;20482;-75
2023/10/02 02:32:56;;;;;;;15.35;8.15;;;17.00;99.90;;;;;;5089205;28;20044;-75
2023/10/02 02:35:44;;;;;;;17.05;8.75;;;17.00;99.90;;;;;;5069902;28;20096;-75
2023/10/02 02:38:30;;;;;;;17.17;8.50;;;17.00;99.90;;;;;;5078932;28;20050;-74
2023/10/02 02:41:18;;;;;;;14.80;8.32;;;17.00;99.90;;;;;;5077784;28;20435;-75
2023/10/02 02:44:04;;;;;;;16.75;8.27;;;16.90;99.90;;;;;;5102678;27;20153;-75
2023/10/02 02:46:53;;;;;;;17.23;9.10;;;16.90;99.90;;;;;;5089364;28;20061;-75
2023/10/02 02:49:58;;;;;;;21.10;10.00;;;16.90;99.90;;;;;;5085263;28;20128;-75
2023/10/02 02:53:12;;;;;;;17.27;8.75;;;16.90;99.90;;;;;;5071879;28;20050;-75
2023/10/02 02:56:23;;;;;;;19.67;8.43;;;16.90;99.90;;;;;;5087798;27;20047;-75
2023/10/02 02:59:09;;;;;;;17.80;8.63;;;16.90;99.90;;;;;;5113690;27;20444;-75
2023/10/02 03:02:08;;;;;;;16.05;8.88;;;16.90;99.90;;;;;;5089439;27;20162;-75
2023/10/02 03:04:56;;;;;;;18.33;8.80;;;16.80;99.90;;;;;;5081727;28;20036;-75
2023/10/02 03:07:44;;;;;;;18.05;8.20;;;16.80;99.90;;;;;;5060967;28;20134;-75
2023/10/02 03:10:36;;;;;;;16.05;8.35;;;16.80;99.90;;;;;;5096619;28;20514;-76
2023/10/02 03:13:22;;;;;;;17.85;8.32;;;16.80;99.90;;;;;;5091362;28;20039;-75
2023/10/02 03:16:28;;;;;;;16.83;8.52;;;16.80;99.90;;;;;;5084023;28;20044;-76
2023/10/02 03:19:16;;;;;;;17.23;7.72;;;16.80;99.90;;;;;;5086241;28;20043;-75
2023/10/02 03:22:02;;;;;;;17.27;7.88;;;16.70;99.90;;;;;;5089248;28;20044;-75
2023/10/02 03:24:48;;;;;;;17.88;8.43;;;16.70;99.90;;;;;;5094499;28;20051;-75
2023/10/02 03:27:36;;;;;;;16.75;8.45;;;16.70;99.90;;;;;;5069114;28;20058;-76
2023/10/02 03:30:40;;;;;;;19.77;8.48;;;16.60;99.90;;;;;;5111741;28;20100;-76
2023/10/02 03:33:31;;;;;;;15.80;8.32;;;16.60;99.90;;;;;;5081027;28;20035;-76
2023/10/02 03:36:20;;;;;;;19.30;8.80;;;16.60;99.90;;;;;;5082485;28;20032;-76
2023/10/02 03:39:23;;;;;;;16.88;8.80;;;16.60;99.90;;;;;;5083884;28;20046;-76
2023/10/02 03:42:12;;;;;;;15.35;8.32;;;16.50;99.90;;;;;;5096628;28;20066;-76
2023/10/02 03:45:00;;;;;;;15.73;8.27;;;16.50;99.90;;;;;;5080997;28;20411;-75
2023/10/02 03:48:01;;;;;;;16.58;8.52;;;16.50;99.90;;;;;;5091946;28;20039;-75
2023/10/02 03:50:48;;;;;;;17.80;7.88;;;16.50;99.90;;;;;;5084837;28;20099;-75
2023/10/02 03:53:34;;;;;;;15.63;8.10;;;16.40;99.90;;;;;;5082743;28;20035;-75
2023/10/02 03:56:42;;;;;;;17.98;8.65;;;16.40;99.90;;;;;;5084875;28;20032;-75
2023/10/02 03:59:31;;;;;;;;;;;16.40;99.90;;;;;;5082875;28;20789;-75
2023/10/02 04:02:26;;;;;;;18.15;9.40;;;16.40;99.90;;;;;;5111855;28;19923;-75
2023/10/02 04:05:30;;;;;;;18.52;9.07;;;16.30;99.90;;;;;;5073706;28;20035;-75
2023/10/02 04:08:21;;;;;;;15.80;8.50;;;16.30;99.90;;;;;;5085209;28;20074;-75
2023/10/02 04:11:09;;;;;;;16.08;8.15;;;16.30;99.90;;;;;;5063320;28;20090;-75
2023/10/02 04:13:56;;;;;;;16.88;7.80;;;16.20;99.90;;;;;;5079663;28;20036;-76
2023/10/02 04:16:43;;;;;;;17.50;8.43;;;16.20;99.90;;;;;;5076746;28;20289;-75
2023/10/02 04:19:29;;;;;;;16.30;8.67;;;16.20;99.90;;;;;;5082676;28;20054;-75
2023/10/02 04:22:27;;;;;;;15.70;8.02;;;16.20;99.90;;;;;;5107831;28;20043;-75
2023/10/02 04:25:13;;;;;;;16.23;8.52;;;16.20;99.90;;;;;;5084862;28;20364;-75
2023/10/02 04:30:45;;;;;;;18.10;8.27;;;16.10;99.90;;;;;;5087825;28;20413;-75
2023/10/02 04:33:38;;;;;;;14.27;7.90;;;16.10;99.90;;;;;;5067774;28;20046;-75
2023/10/02 04:36:34;;;;;;;17.42;8.95;;;16.10;99.90;;;;;;5099777;27;20035;-75
2023/10/02 04:42:25;;;;;;;17.67;8.27;;;16.00;99.90;;;;;;5083372;27;20460;-75
2023/10/02 04:45:20;;;;;;;15.32;8.30;;;16.00;99.90;;;;;;5074086;28;20134;-75
2023/10/02 04:48:09;;;;;;;18.02;8.57;;;16.00;99.90;;;;;;5105768;27;20046;-75
2023/10/02 04:50:56;;;;;;;18.65;9.00;;;16.00;99.90;;;;;;5100143;28;20487;-75
2023/10/02 04:53:45;;;;;;;20.85;8.65;;;16.00;99.90;;;;;;5090820;27;20074;-75
2023/10/02 04:56:32;;;;;;;18.88;9.00;;;16.00;99.90;;;;;;5067509;28;20100;-75
2023/10/02 04:59:20;;;;;;;17.17;8.75;;;16.00;99.90;;;;;;5073447;27;20108;-75
2023/10/02 05:02:21;;;;;;;16.70;8.60;;;15.90;99.90;;;;;;5094036;28;20055;-74
2023/10/02 05:05:08;;;;;;;17.70;9.02;;;15.90;99.90;;;;;;5094340;27;20050;-75
2023/10/02 05:07:56;;;;;;;18.35;8.65;;;15.90;99.90;;;;;;5073715;28;20092;-75
2023/10/02 05:10:42;;;;;;;15.80;8.03;;;15.90;99.90;;;;;;5099542;28;20039;-75
2023/10/02 05:17:17;;;;;;;15.30;8.65;;;15.90;99.90;;;;;;5004255;28;20190;-75
2023/10/02 05:20:04;;;;;;;20.40;9.15;;;15.90;99.90;;;;;;5002205;28;20424;-75
2023/10/02 05:22:58;;;;;;;17.38;9.00;;;15.90;99.90;;;;;;5089212;27;20067;-75
2023/10/02 05:25:47;;;;;;;17.45;8.88;;;15.90;99.90;;;;;;5080552;28;20043;-75
2023/10/02 05:28:46;;;;;;;19.55;8.45;;;15.90;99.90;;;;;;5066726;28;20032;-75
2023/10/02 05:31:41;;;;;;;19.27;9.05;;;15.90;99.90;;;;;;5068170;28;20371;-76
2023/10/02 05:35:03;;;;;;;17.23;9.18;;;15.80;99.90;;;;;;5091277;27;20122;-75
2023/10/02 05:37:51;;;;;;;18.52;8.32;;;15.80;99.90;;;;;;5069988;28;20035;-75
2023/10/02 05:40:37;;;;;;;16.88;8.63;;;15.80;99.90;;;;;;5072254;27;20368;-76
2023/10/02 05:43:23;;;;;;;18.77;9.57;;;15.80;99.90;;;;;;5092035;28;20490;-75
2023/10/02 05:46:16;;;;;;;20.95;8.95;;;15.80;99.90;;;;;;5093598;28;20083;-76
2023/10/02 05:49:03;;;;;;;16.70;8.50;;;15.80;99.90;;;;;;5073786;27;20035;-75
2023/10/02 05:51:55;;;;;;;19.10;9.45;;;15.80;99.90;;;;;;5112780;27;20130;-75
2023/10/02 05:55:09;;;;;;;16.48;8.15;;;15.90;99.90;;;;;;5080600;27;20039;-76
2023/10/02 05:57:47;;;;;;;17.80;8.57;;;15.80;99.90;;;;;;5102535;28;20046;-75
2023/10/02 06:00:35;;;;;;;18.30;8.88;;;15.80;99.90;;;;;;5113169;27;20502;-75
2023/10/02 06:03:21;;;;;;;19.90;8.50;;;15.80;99.90;;;;;;5095379;28;20560;-75
2023/10/02 06:06:15;;;;;;;15.88;8.43;;;15.80;99.90;;;;;;5083485;27;20095;-75
2023/10/02 06:09:03;;;;;;;17.20;8.52;;;15.80;99.90;;;;;;5080374;28;20490;-75
2023/10/02 06:12:02;;;;;;;16.25;8.27;;;15.80;99.90;;;;;;5078574;28;20400;-75
2023/10/02 06:14:49;;;;;;;18.42;8.82;;;15.90;99.90;;;;;;5094039;27;20074;-75
2023/10/02 06:17:36;;;;;;;16.17;8.50;;;15.90;99.90;;;;;;5076079;28;20154;-75
2023/10/02 06:20:23;;;;;;;18.27;9.35;;;15.90;99.90;;;;;;5080866;27;20036;-75
2023/10/02 06:23:22;;;;;;;17.65;8.68;;;15.90;99.90;;;;;;5112141;27;20345;-74
2023/10/02 06:26:11;;;;;;;17.58;8.85;;;16.00;99.90;;;;;;5074036;27;20422;-75
2023/10/02 06:35:17;;;;;;;18.83;8.40;;;16.10;99.90;;;;;;5082005;28;20352;-75
2023/10/02 06:38:15;;;;;;;18.50;8.82;;;16.10;99.90;;;;;;5083610;27;20043;-75
2023/10/02 06:41:08;;;;;;;16.20;8.07;;;16.10;99.90;;;;;;5078271;28;20032;-75
2023/10/02 06:43:54;;;;;;;15.60;8.48;;;16.20;99.90;;;;;;5088251;27;20118;-75
2023/10/02 06:46:52;;;;;;;16.48;8.38;;;16.20;99.90;;;;;;5097300;28;20117;-75
2023/10/02 06:49:41;;;;;;;19.42;8.85;;;16.20;99.90;;;;;;5086807;27;20096;-75
2023/10/02 06:52:29;;;;;;;16.30;8.68;;;16.30;99.90;;;;;;5065845;28;20044;-75
2023/10/02 06:55:17;;;;;;;19.73;8.27;;;16.30;99.90;;;;;;5069989;27;20039;-74
2023/10/02 06:58:06;;;;;;;16.77;8.25;;;16.30;99.90;;;;;;5062988;28;20036;-74
2023/10/02 07:00:55;;;;;;;18.65;8.95;;;16.40;99.90;;;;;;5068908;28;20047;-75
2023/10/02 07:03:50;;;;;;;25.17;9.68;;;16.40;99.90;;;;;;5108647;27;20032;-77
2023/10/02 07:06:38;;;;;;;24.08;10.57;;;16.40;99.90;;;;;;5067679;28;20162;-76
2023/10/02 07:09:24;;;;;;;24.08;9.55;;;16.50;99.90;;;;;;5068943;27;20523;-77
2023/10/02 07:12:13;;;;;;;16.85;8.68;;;16.50;99.90;;;;;;5068724;28;20067;-77
2023/10/02 07:15:12;;;;;;;19.15;9.25;;;16.60;99.90;;;;;;5070367;28;20054;-77
2023/10/02 07:18:04;;;;;;;18.73;8.50;;;16.60;99.90;;;;;;5069411;28;20235;-77
2023/10/02 07:20:53;;;;;;;15.63;8.70;;;16.70;99.90;;;;;;5069223;28;20047;-77
2023/10/02 07:23:39;;;;;;;17.98;9.55;;;16.80;99.90;;;;;;5082012;28;20047;-77
2023/10/02 07:29:38;;;;;;;19.60;9.07;;;17.00;99.90;;;;;;5088582;28;20495;-75
2023/10/02 07:32:30;;;;;;;16.90;8.85;;;17.10;99.90;;;;;;5081036;28;20115;-74
2023/10/02 07:35:23;;;;;;;18.77;9.65;;;17.10;99.90;;;;;;5079991;28;20032;-75
2023/10/02 07:38:09;;;;;;;19.77;9.60;;;17.20;99.90;;;;;;5083451;28;20040;-74
2023/10/02 07:41:06;;;;;;;18.40;9.80;;;17.30;99.90;;;;;;5060487;28;20043;-75
2023/10/02 07:43:54;;;;;;;19.25;9.35;;;17.40;99.90;;;;;;5066966;28;20491;-75
2023/10/02 07:46:40;;;;;;;17.75;9.32;;;17.50;99.90;;;;;;5082197;28;20039;-75
2023/10/02 07:49:26;;;;;;;22.45;9.45;;;17.50;99.90;;;;;;5082033;28;20069;-74
2023/10/02 07:52:26;;;;;;;19.63;10.02;;;17.50;99.90;;;;;;5091839;28;20040;-74
2023/10/02 07:55:13;;;;;;;18.52;8.95;;;17.60;99.90;;;;;;5092440;28;20185;-75
2023/10/02 07:58:00;;;;;;;16.40;8.80;;;17.70;99.90;;;;;;5073117;28;20040;-75
2023/10/02 08:00:49;;;;;;;17.73;8.80;;;17.70;99.90;;;;;;5075132;28;20036;-75
2023/10/02 08:03:43;;;;;;;19.33;10.30;;;17.80;99.90;;;;;;5110393;28;20682;-75
2023/10/02 08:09:35;;;;;;;22.65;9.85;;;17.90;99.90;;;;;;5100317;28;20055;-75
2023/10/02 08:12:33;;;;;;;21.02;9.68;;;17.90;99.90;;;;;;5086723;27;20547;-75
2023/10/02 08:15:32;;;;;;;18.13;8.15;;;18.00;99.90;;;;;;5101673;28;20040;-75
2023/10/02 08:18:18;;;;;;;19.38;9.25;;;18.10;99.90;;;;;;5096994;27;20038;-75
2023/10/02 08:21:04;;;;;;;18.00;8.48;;;18.20;99.90;;;;;;5100331;28;20433;-75
2023/10/02 08:23:54;;;;;;;20.75;9.15;;;18.30;99.90;;;;;;5095849;27;20042;-74
2023/10/02 08:26:43;;;;;;;17.00;8.90;;;18.40;99.90;;;;;;5095760;28;20480;-75
2023/10/02 08:29:29;;;;;;;18.55;9.52;;;18.50;99.90;;;;;;5068842;28;20074;-75
2023/10/02 08:32:28;;;;;;;18.40;9.48;;;18.60;99.90;;;;;;5099887;27;20051;-75
2023/10/02 08:35:14;;;;;;;19.10;8.90;;;18.60;99.90;;;;;;5083979;28;20513;-75
2023/10/02 08:38:00;;;;;;;18.48;9.10;;;18.70;99.90;;;;;;5084504;27;20045;-73
2023/10/02 08:40:46;;;;;;;15.90;9.13;;;18.80;99.90;;;;;;5075717;28;20044;-75
2023/10/02 08:43:43;;;;;;;16.90;8.60;;;18.90;99.90;;;;;;5101074;27;20039;-75
2023/10/02 08:46:31;;;;;;;18.85;9.23;;;19.10;99.90;;;;;;5100761;28;20059;-76
2023/10/02 08:49:18;;;;;;;16.27;8.75;;;19.00;99.90;;;;;;5075764;28;20046;-75
2023/10/02 08:52:10;;;;;;;18.23;9.30;;;19.10;99.90;;;;;;5093685;27;20556;-75
2023/10/02 08:54:56;;;;;;;17.80;9.30;;;19.30;99.90;;;;;;5056378;28;20048;-75
2023/10/02 08:57:51;;;;;;;22.98;10.05;;;19.30;99.90;;;;;;5077055;27;20031;-75
2023/10/02 09:00:38;;;;;;;19.90;9.75;;;19.40;99.90;;;;;;5099652;28;20102;-75
2023/10/02 09:03:24;;;;;;;19.67;10.15;;;19.50;99.90;;;;;;5077428;27;20542;-74
2023/10/02 09:06:35;;;;;;;21.85;9.45;;;19.50;99.90;;;;;;5080099;28;20087;-75
2023/10/02 09:12:15;;;;;;;20.30;8.82;;;19.60;99.90;;;;;;5094288;28;20076;-75
2023/10/02 09:15:24;;;;;;;18.95;9.73;;;19.70;99.90;;;;;;5100483;27;20043;-74
2023/10/02 09:18:22;;;;;;;17.45;8.93;;;19.80;99.90;;;;;;5100251;28;20568;-79
2023/10/02 09:21:15;;;;;;;22.90;9.80;;;19.90;99.90;;;;;;5113114;27;20100;-77
2023/10/02 09:24:02;;;;;;;17.60;9.32;;;20.10;99.90;;;;;;5078237;28;20040;-77
2023/10/02 09:26:49;;;;;;;17.40;9.00;;;20.10;99.90;;;;;;5101514;27;20043;-77
2023/10/02 09:29:35;;;;;;;18.35;9.88;;;20.20;99.90;;;;;;5067920;28;20476;-78
2023/10/02 09:32:24;;;;;;;19.77;9.05;;;20.30;99.90;;;;;;5068777;28;20044;-77
2023/10/02 09:35:21;;;;;;;17.95;9.57;;;20.40;99.90;;;;;;5088589;27;20085;-77
2023/10/02 09:38:08;;;;;;;20.80;10.23;;;20.50;99.90;;;;;;5089304;28;20035;-77
2023/10/02 09:40:54;;;;;;;20.00;9.95;;;20.70;99.90;;;;;;5069294;27;20050;-77
2023/10/02 09:43:41;;;;;;;20.50;10.27;;;20.80;99.90;;;;;;5084750;28;20063;-77
2023/10/02 09:46:29;;;;;;;14.57;8.87;;;20.90;99.90;;;;;;5073064;27;20104;-77
2023/10/02 09:49:21;;;;;;;;;;;21.00;99.90;;;;;;5079854;28;20343;-77
2023/10/02 09:52:16;;;;;;;20.40;9.25;;;21.20;99.90;;;;;;5083046;28;19915;-77
2023/10/02 09:55:14;;;;;;;17.85;8.95;;;21.20;99.90;;;;;;5057489;28;20036;-77
2023/10/02 09:58:03;;;;;;;19.85;9.57;;;21.20;99.90;;;;;;5076360;28;20040;-77
2023/10/02 10:04:42;;;;;;;20.00;9.25;;;21.40;99.90;;;;;;5090105;27;20048;-77
2023/10/02 10:07:37;;;;;;;18.55;8.73;;;21.50;99.90;;;;;;5090616;28;20062;-76
2023/10/02 10:13:37;;;;;;;18.27;9.45;;;21.80;99.90;;;;;;5113599;27;20039;-77
2023/10/02 10:16:23;;;;;;;19.42;9.02;;;21.90;99.90;;;;;;5077581;27;20455;-77
2023/10/02 10:22:04;;;;;;;19.08;8.77;;;22.10;99.90;;;;;;5086447;27;20127;-78
2023/10/02 10:27:54;;;;;;;17.40;8.93;;;22.20;99.90;;;;;;5106860;28;20058;-78
2023/10/02 10:30:46;;;;;;;15.52;9.30;;;22.40;99.90;;;;;;5101260;27;20050;-82
2023/10/02 10:33:34;;;;;;;22.73;9.35;;;22.50;99.90;;;;;;5079542;28;20105;-77
2023/10/02 10:36:33;;;;;;;18.65;9.45;;;22.60;99.90;;;;;;5078937;28;20071;-77
2023/10/02 10:39:51;;;;;;;18.55;9.13;;;22.80;99.90;;;;;;5068167;28;20035;-76
2023/10/02 10:43:00;;;;;;;19.38;9.57;;;22.90;99.90;;;;;;5089058;28;20078;-77
2023/10/02 10:45:48;;;;;;;15.32;8.65;;;23.10;99.80;;;;;;5096623;27;20387;-77
2023/10/02 10:48:34;;;;;;;18.42;8.82;;;23.40;99.40;;;;;;5080320;28;20216;-78
2023/10/02 10:51:21;;;;;;;17.88;9.52;;;23.60;99.10;;;;;;5084558;27;20043;-77
2023/10/02 10:54:30;;;;;;;22.38;9.32;;;23.60;98.30;;;;;;5059055;28;20032;-77
2023/10/02 10:57:19;;;;;;;19.33;9.95;;;23.60;98.30;;;;;;5078426;27;20128;-78
2023/10/02 11:03:19;;;;;;;20.83;8.68;;;23.90;98.20;;;;;;5108332;27;20527;-77
2023/10/02 11:06:10;;;;;;;16.50;8.95;;;23.80;97.80;;;;;;5094518;27;20034;-78
2023/10/02 11:09:11;;;;;;;16.95;9.52;;;24.00;98.30;;;;;;5097899;28;20052;-77
2023/10/02 11:11:58;;;;;;;14.18;8.77;;;24.30;97.70;;;;;;5071828;28;20101;-77
2023/10/02 11:14:44;;;;;;;14.27;8.07;;;24.30;97.10;;;;;;5093668;28;20043;-77
2023/10/02 11:17:32;;;;;;;17.13;9.05;;;24.30;97.30;;;;;;5058987;28;20044;-77
2023/10/02 11:20:31;;;;;;;16.92;8.48;;;24.40;97.10;;;;;;5085144;28;20048;-77
2023/10/02 11:23:31;;;;;;;17.55;9.02;;;24.50;96.50;;;;;;5055459;28;20102;-77
2023/10/02 11:26:21;;;;;;;15.98;8.25;;;24.50;96.40;;;;;;5071936;28;20503;-77
2023/10/02 11:29:20;;;;;;;15.73;8.68;;;24.50;96.50;;;;;;5097913;28;20032;-78
2023/10/02 11:32:22;;;;;;;15.85;7.75;;;24.60;96.00;;;;;;5070809;28;20119;-77
2023/10/02 11:35:08;;;;;;;14.90;8.73;;;24.60;96.00;;;;;;5070719;28;20472;-77
2023/10/02 11:37:55;;;;;;;16.15;9.00;;;24.60;95.60;;;;;;5080915;28;20040;-77
2023/10/02 11:40:43;;;;;;;14.07;7.75;;;24.60;95.90;;;;;;5080506;27;20387;-77
2023/10/02 11:43:29;;;;;;;17.42;8.27;;;24.70;96.10;;;;;;5074659;28;20046;-77
2023/10/02 11:46:15;;;;;;;14.05;7.90;;;24.70;96.30;;;;;;5082419;28;20118;-78
2023/10/02 11:49:01;;;;;;;16.10;8.27;;;24.80;95.50;;;;;;5072567;28;20044;-77
2023/10/02 11:51:46;;;;;;;14.95;8.13;;;24.80;95.60;;;;;;5082323;28;20349;-77
2023/10/02 11:54:42;;;;;;;13.55;7.25;;;24.90;95.30;;;;;;5101974;27;20336;-77
2023/10/02 11:57:28;;;;;;;17.70;8.85;;;24.90;95.30;;;;;;5084329;28;20067;-77
2023/10/02 12:00:14;;;;;;;14.48;7.63;;;24.90;95.40;;;;;;5072508;27;20142;-78
2023/10/02 12:03:00;;;;;;;15.65;8.30;;;24.70;95.30;;;;;;5101809;28;20379;-77
2023/10/02 12:05:47;;;;;;;14.88;7.95;;;24.60;95.60;;;;;;5071146;28;20074;-77
2023/10/02 12:08:35;;;;;;;14.27;7.60;;;24.70;95.90;;;;;;5093275;27;20478;-77
2023/10/02 12:11:24;;;;;;;;;;;24.80;95.60;;;;;;5084142;28;20062;-76
2023/10/02 12:14:10;;;;;;;14.77;8.35;;;24.90;95.00;;;;;;5086131;27;19915;-76
2023/10/02 12:17:00;;;;;;;18.83;7.50;;;24.80;95.10;;;;;;5071188;28;20040;-79
2023/10/02 12:19:46;;;;;;;13.35;7.68;;;24.90;95.10;;;;;;5097533;27;20031;-78
2023/10/02 12:22:32;;;;;;;15.23;7.55;;;24.80;95.00;;;;;;5078312;28;20043;-78
2023/10/02 12:25:18;;;;;;;12.93;7.63;;;24.60;95.60;;;;;;5085505;28;20061;-78
2023/10/02 12:28:06;;;;;;;16.73;7.93;;;24.70;95.60;;;;;;5064546;27;20039;-77
2023/10/02 12:30:53;;;;;;;14.55;7.93;;;24.50;95.40;;;;;;5100688;28;20475;-78
2023/10/02 12:33:41;;;;;;;14.48;7.88;;;24.40;95.90;;;;;;5087513;27;20122;-77
2023/10/02 12:36:27;;;;;;;16.75;8.05;;;24.40;96.40;;;;;;5065939;28;20032;-77
2023/10/02 12:39:13;;;;;;;15.45;7.75;;;24.40;96.30;;;;;;5068188;28;20036;-77
2023/10/02 12:41:59;;;;;;;14.82;7.50;;;24.40;96.30;;;;;;5103289;27;20131;-77
2023/10/02 12:44:45;;;;;;;17.27;7.15;;;24.40;96.60;;;;;;5101789;28;20051;-76
2023/10/02 12:47:33;;;;;;;14.05;7.43;;;24.40;96.40;;;;;;5075070;27;20036;-78
2023/10/02 12:50:19;;;;;;;17.40;8.32;;;24.10;96.40;;;;;;5093714;28;20397;-79
2023/10/02 12:53:05;;;;;;;13.40;7.38;;;24.00;96.50;;;;;;5068830;28;20047;-77
2023/10/02 12:55:52;;;;;;;14.07;7.60;;;23.90;96.80;;;;;;5105335;27;20089;-78
2023/10/02 12:58:38;;;;;;;16.65;7.85;;;23.90;97.20;;;;;;5075939;28;20091;-78
2023/10/02 13:01:27;;;;;;;12.88;7.68;;;23.80;97.40;;;;;;5103557;27;20133;-77
2023/10/02 13:04:12;;;;;;;13.57;7.28;;;23.90;97.30;;;;;;5091005;28;20043;-77
2023/10/02 13:06:59;;;;;;;14.70;6.93;;;23.80;97.20;;;;;;5070976;27;20379;-76
2023/10/02 13:09:44;;;;;;;12.68;8.05;;;23.70;97.50;;;;;;5065216;28;20043;-77
2023/10/02 13:12:31;;;;;;;15.18;7.78;;;23.70;97.20;;;;;;5086111;28;20043;-78
2023/10/02 13:15:19;;;;;;;16.02;7.32;;;23.70;97.50;;;;;;5086260;27;20123;-78
2023/10/02 13:18:05;;;;;;;17.13;7.63;;;23.50;97.50;;;;;;5084874;28;20066;-75
2023/10/02 13:20:55;;;;;;;17.15;7.53;;;23.60;97.70;;;;;;5087245;27;20071;-74
2023/10/02 13:23:42;;;;;;;13.25;7.00;;;23.60;97.90;;;;;;5073703;28;20047;-76
2023/10/02 13:26:28;;;;;;;11.77;6.95;;;23.50;98.00;;;;;;5095745;28;20047;-74
2023/10/02 13:29:14;;;;;;;14.05;7.72;;;23.50;98.30;;;;;;5077293;27;20126;-75
2023/10/02 13:32:01;;;;;;;14.23;7.40;;;23.50;98.30;;;;;;5097705;28;20048;-75
2023/10/02 13:34:47;;;;;;;11.87;6.67;;;23.40;98.00;;;;;;5099346;27;20039;-75
2023/10/02 13:37:35;;;;;;;15.40;7.25;;;23.40;98.10;;;;;;5075345;28;20465;-75
2023/10/02 13:40:31;;;;;;;12.45;7.55;;;23.40;98.20;;;;;;5095610;28;20086;-78
2023/10/02 13:43:17;;;;;;;15.60;7.45;;;23.30;98.30;;;;;;5066646;28;20036;-77
2023/10/02 13:46:08;;;;;;;15.88;7.90;;;23.30;98.20;;;;;;5096477;28;20043;-78
2023/10/02 13:48:54;;;;;;;16.05;7.65;;;23.30;98.50;;;;;;5067552;27;20039;-77
2023/10/02 13:51:41;;;;;;;13.25;7.55;;;23.30;98.70;;;;;;5067488;28;20039;-77
2023/10/02 13:54:27;;;;;;;13.20;7.35;;;23.30;98.70;;;;;;5072612;27;20545;-78
2023/10/02 13:57:13;;;;;;;14.07;8.10;;;23.30;98.80;;;;;;5099783;28;20032;-77
2023/10/02 13:59:59;;;;;;;15.70;8.15;;;23.20;98.80;;;;;;5068594;28;20040;-77
2023/10/02 14:02:47;;;;;;;13.70;7.95;;;23.20;98.70;;;;;;5063306;28;20079;-77
2023/10/02 14:05:35;;;;;;;14.10;7.10;;;23.20;99.00;;;;;;5099551;28;20043;-77
2023/10/02 14:08:21;;;;;;;13.82;7.45;;;23.20;99.10;;;;;;5090017;27;20039;-77
2023/10/02 14:11:10;;;;;;;15.13;8.55;;;23.20;99.50;;;;;;5089355;28;20044;-77
2023/10/02 14:13:58;;;;;;;17.13;8.27;;;23.10;99.60;;;;;;5071459;27;20086;-77
2023/10/02 14:16:44;;;;;;;13.52;7.72;;;23.10;99.80;;;;;;5078518;28;20381;-78
2023/10/02 14:19:30;;;;;;;12.50;7.32;;;23.10;99.80;;;;;;5086513;28;20188;-77
2023/10/02 14:22:16;;;;;;;17.75;7.65;;;23.00;99.50;;;;;;5097577;27;20548;-77
2023/10/02 14:25:06;;;;;;;12.85;7.57;;;23.00;99.40;;;;;;5095916;28;20054;-77
2023/10/02 14:27:52;;;;;;;13.73;7.45;;;23.00;99.30;;;;;;5101307;27;20047;-77
2023/10/02 14:30:39;;;;;;;14.68;7.35;;;23.00;99.50;;;;;;5084037;28;20156;-77
2023/10/02 14:33:25;;;;;;;15.07;8.17;;;23.00;99.50;;;;;;5085375;27;20040;-78
2023/10/02 14:36:12;;;;;;;14.57;6.93;;;22.90;99.30;;;;;;5063115;28;20260;-77
2023/10/02 14:38:58;;;;;;;15.35;7.57;;;23.00;99.40;;;;;;5081907;28;20043;-77
2023/10/02 14:41:44;;;;;;;17.17;7.93;;;22.90;99.40;;;;;;5069570;27;20471;-77
2023/10/02 14:44:30;;;;;;;15.10;7.95;;;22.90;99.70;;;;;;5069513;28;20059;-79
2023/10/02 14:47:18;;;;;;;13.55;7.57;;;22.90;99.50;;;;;;5064382;27;20142;-77
2023/10/02 14:50:04;;;;;;;18.25;7.72;;;23.00;99.80;;;;;;5079351;28;20067;-78
2023/10/02 14:52:52;;;;;;;12.82;7.10;;;22.90;99.70;;;;;;5083230;28;20372;-78
2023/10/02 14:55:39;;;;;;;15.32;7.80;;;23.00;99.40;;;;;;5086145;27;20087;-78
2023/10/02 14:58:25;;;;;;;13.52;6.93;;;22.90;99.30;;;;;;5065559;28;20036;-78
2023/10/02 15:01:12;;;;;;;15.30;7.95;;;23.00;99.50;;;;;;5084143;27;20351;-77
2023/10/02 15:03:58;;;;;;;16.45;8.57;;;23.00;99.90;;;;;;5095069;28;20044;-77
2023/10/02 15:06:45;;;;;;;14.50;7.45;;;23.00;99.80;;;;;;5081346;28;20043;-77
2023/10/02 15:09:31;;;;;;;14.75;8.35;;;23.00;99.90;;;;;;5084911;27;20039;-78
2023/10/02 15:12:17;;;;;;;13.95;8.07;;;23.00;99.90;;;;;;5083386;28;20124;-77
2023/10/02 15:15:13;;;;;;;15.32;7.43;;;22.90;99.90;;;;;;5083659;27;20082;-77
2023/10/02 15:18:01;;;;;;;13.63;8.00;;;22.90;99.90;;;;;;5100116;28;20375;-78
2023/10/02 15:20:47;;;;;;;13.97;7.97;;;22.90;99.90;;;;;;5072450;27;20372;-78